sensor_id;sensor_type;location;lat;lon;timestamp;temperature;humidity
21612;DHT22;47005;52.292;13.452;2024-03-08T00:01:15;4.70;92.20
21612;DHT22;47005;52.292;13.452;2024-03-08T00:03:42;4.70;92.20
21612;DHT22;47005;52.292;13.452;2024-03-08T00:06:07;4.70;92.20
21612;DHT22;47005;52.292;13.452;2024-03-08T00:08:33;4.70;92.10
21612;DHT22;47005;52.292;13.452;2024-03-08T00:10:59;4.70;92.10
21612;DHT22;47005;52.292;13.452;2024-03-08T00:13:24;4.60;92.10
21612;DHT22;47005;52.292;13.452;2024-03-08T00:15:50;4.60;92.20
21612;DHT22;47005;52.292;13.452;2024-03-08T00:18:16;4.60;92.30
21612;DHT22;47005;52.292;13.452;2024-03-08T00:20:42;4.60;92.30
21612;DHT22;47005;52.292;13.452;2024-03-08T00:23:09;4.50;92.30
21612;DHT22;47005;52.292;13.452;2024-03-08T00:25:36;4.50;92.30
21612;DHT22;47005;52.292;13.452;2024-03-08T00:28:02;4.50;92.40
21612;DHT22;47005;52.292;13.452;2024-03-08T00:30:27;4.50;92.70
21612;DHT22;47005;52.292;13.452;2024-03-08T00:32:53;4.50;92.70
21612;DHT22;47005;52.292;13.452;2024-03-08T00:35:18;4.40;92.60
21612;DHT22;47005;52.292;13.452;2024-03-08T00:37:44;4.40;92.70
21612;DHT22;47005;52.292;13.452;2024-03-08T00:40:12;4.30;92.60
21612;DHT22;47005;52.292;13.452;2024-03-08T00:42:38;4.30;92.60
21612;DHT22;47005;52.292;13.452;2024-03-08T00:45:05;4.30;92.70
21612;DHT22;47005;52.292;13.452;2024-03-08T00:47:31;4.20;92.70
21612;DHT22;47005;52.292;13.452;2024-03-08T00:49:56;4.20;92.80
21612;DHT22;47005;52.292;13.452;2024-03-08T00:52:23;4.20;92.80
21612;DHT22;47005;52.292;13.452;2024-03-08T00:54:49;4.20;92.80
21612;DHT22;47005;52.292;13.452;2024-03-08T00:57:15;4.20;92.80
21612;DHT22;47005;52.292;13.452;2024-03-08T00:59:40;4.10;92.80
21612;DHT22;47005;52.292;13.452;2024-03-08T01:02:06;4.10;92.90
21612;DHT22;47005;52.292;13.452;2024-03-08T01:04:33;4.10;92.90
21612;DHT22;47005;52.292;13.452;2024-03-08T01:06:59;4.10;93.00
21612;DHT22;47005;52.292;13.452;2024-03-08T01:09:25;4.10;93.10
21612;DHT22;47005;52.292;13.452;2024-03-08T01:11:52;4.10;93.20
21612;DHT22;47005;52.292;13.452;2024-03-08T01:14:20;4.10;93.20
21612;DHT22;47005;52.292;13.452;2024-03-08T01:16:48;4.00;93.10
21612;DHT22;47005;52.292;13.452;2024-03-08T01:19:14;4.00;93.10
21612;DHT22;47005;52.292;13.452;2024-03-08T01:21:41;4.00;93.20
21612;DHT22;47005;52.292;13.452;2024-03-08T01:24:07;4.00;93.20
21612;DHT22;47005;52.292;13.452;2024-03-08T01:26:32;4.00;93.30
21612;DHT22;47005;52.292;13.452;2024-03-08T01:29:00;4.00;93.30
21612;DHT22;47005;52.292;13.452;2024-03-08T01:31:25;3.90;93.30
21612;DHT22;47005;52.292;13.452;2024-03-08T01:33:51;3.90;93.60
21612;DHT22;47005;52.292;13.452;2024-03-08T01:36:17;3.90;93.20
21612;DHT22;47005;52.292;13.452;2024-03-08T01:38:44;3.90;93.10
21612;DHT22;47005;52.292;13.452;2024-03-08T01:41:10;3.90;93.30
21612;DHT22;47005;52.292;13.452;2024-03-08T01:43:37;3.90;93.30
21612;DHT22;47005;52.292;13.452;2024-03-08T01:46:05;3.90;93.30
21612;DHT22;47005;52.292;13.452;2024-03-08T01:48:31;3.90;93.30
21612;DHT22;47005;52.292;13.452;2024-03-08T01:50:57;3.80;93.30
21612;DHT22;47005;52.292;13.452;2024-03-08T01:53:24;3.80;93.30
21612;DHT22;47005;52.292;13.452;2024-03-08T01:55:55;3.80;93.30
21612;DHT22;47005;52.292;13.452;2024-03-08T01:58:22;3.80;93.20
21612;DHT22;47005;52.292;13.452;2024-03-08T02:00:48;3.80;93.20
21612;DHT22;47005;52.292;13.452;2024-03-08T02:03:15;3.80;93.10
21612;DHT22;47005;52.292;13.452;2024-03-08T02:05:41;3.80;93.10
21612;DHT22;47005;52.292;13.452;2024-03-08T02:08:07;3.70;93.00
21612;DHT22;47005;52.292;13.452;2024-03-08T02:10:38;3.70;93.10
21612;DHT22;47005;52.292;13.452;2024-03-08T02:13:04;3.70;93.30
21612;DHT22;47005;52.292;13.452;2024-03-08T02:18:21;3.60;93.30
21612;DHT22;47005;52.292;13.452;2024-03-08T02:20:51;3.60;93.30
21612;DHT22;47005;52.292;13.452;2024-03-08T02:23:21;3.60;93.30
21612;DHT22;47005;52.292;13.452;2024-03-08T02:25:47;3.60;93.30
21612;DHT22;47005;52.292;13.452;2024-03-08T02:28:14;3.60;93.30
21612;DHT22;47005;52.292;13.452;2024-03-08T02:30:40;3.60;93.30
21612;DHT22;47005;52.292;13.452;2024-03-08T02:33:06;3.60;93.30
21612;DHT22;47005;52.292;13.452;2024-03-08T02:35:33;3.60;93.40
21612;DHT22;47005;52.292;13.452;2024-03-08T02:37:59;3.50;93.40
21612;DHT22;47005;52.292;13.452;2024-03-08T02:40:25;3.50;93.40
21612;DHT22;47005;52.292;13.452;2024-03-08T02:42:51;3.50;93.60
21612;DHT22;47005;52.292;13.452;2024-03-08T02:45:17;3.50;93.50
21612;DHT22;47005;52.292;13.452;2024-03-08T02:47:42;3.40;93.50
21612;DHT22;47005;52.292;13.452;2024-03-08T02:50:08;3.40;93.50
21612;DHT22;47005;52.292;13.452;2024-03-08T02:52:34;3.40;93.60
21612;DHT22;47005;52.292;13.452;2024-03-08T02:55:01;3.40;93.60
21612;DHT22;47005;52.292;13.452;2024-03-08T02:57:27;3.40;93.60
21612;DHT22;47005;52.292;13.452;2024-03-08T02:59:53;3.40;93.60
21612;DHT22;47005;52.292;13.452;2024-03-08T03:02:19;3.30;93.70
21612;DHT22;47005;52.292;13.452;2024-03-08T03:04:45;3.30;93.70
21612;DHT22;47005;52.292;13.452;2024-03-08T03:07:11;3.30;93.70
21612;DHT22;47005;52.292;13.452;2024-03-08T03:09:36;3.30;94.10
21612;DHT22;47005;52.292;13.452;2024-03-08T03:12:02;3.20;93.70
21612;DHT22;47005;52.292;13.452;2024-03-08T03:14:28;3.20;93.90
21612;DHT22;47005;52.292;13.452;2024-03-08T03:16:54;3.20;93.80
21612;DHT22;47005;52.292;13.452;2024-03-08T03:19:20;3.20;93.90
21612;DHT22;47005;52.292;13.452;2024-03-08T03:21:46;3.20;93.90
21612;DHT22;47005;52.292;13.452;2024-03-08T03:24:12;3.20;94.10
21612;DHT22;47005;52.292;13.452;2024-03-08T03:26:41;3.20;94.00
21612;DHT22;47005;52.292;13.452;2024-03-08T03:29:09;3.20;93.90
21612;DHT22;47005;52.292;13.452;2024-03-08T03:31:35;3.20;93.90
21612;DHT22;47005;52.292;13.452;2024-03-08T03:34:01;3.20;93.90
21612;DHT22;47005;52.292;13.452;2024-03-08T03:36:29;3.20;93.90
21612;DHT22;47005;52.292;13.452;2024-03-08T03:38:55;3.10;94.00
21612;DHT22;47005;52.292;13.452;2024-03-08T03:41:36;3.10;94.00
21612;DHT22;47005;52.292;13.452;2024-03-08T03:44:02;3.10;94.30
21612;DHT22;47005;52.292;13.452;2024-03-08T03:46:27;3.10;94.20
21612;DHT22;47005;52.292;13.452;2024-03-08T03:48:56;3.10;94.10
21612;DHT22;47005;52.292;13.452;2024-03-08T03:51:22;3.10;94.40
21612;DHT22;47005;52.292;13.452;2024-03-08T03:53:48;3.10;94.40
21612;DHT22;47005;52.292;13.452;2024-03-08T03:56:14;3.00;94.30
21612;DHT22;47005;52.292;13.452;2024-03-08T03:58:39;3.00;94.40
21612;DHT22;47005;52.292;13.452;2024-03-08T04:01:05;3.00;94.40
21612;DHT22;47005;52.292;13.452;2024-03-08T04:03:31;3.00;94.50
21612;DHT22;47005;52.292;13.452;2024-03-08T04:05:56;2.90;94.50
21612;DHT22;47005;52.292;13.452;2024-03-08T04:08:22;2.90;94.50
21612;DHT22;47005;52.292;13.452;2024-03-08T04:10:50;2.90;94.50
21612;DHT22;47005;52.292;13.452;2024-03-08T04:13:16;2.90;94.60
21612;DHT22;47005;52.292;13.452;2024-03-08T04:15:42;2.90;94.60
21612;DHT22;47005;52.292;13.452;2024-03-08T04:18:10;2.90;94.70
21612;DHT22;47005;52.292;13.452;2024-03-08T04:20:36;2.90;94.60
21612;DHT22;47005;52.292;13.452;2024-03-08T04:23:04;2.90;94.70
21612;DHT22;47005;52.292;13.452;2024-03-08T04:25:30;2.80;94.60
21612;DHT22;47005;52.292;13.452;2024-03-08T04:27:56;2.80;94.70
21612;DHT22;47005;52.292;13.452;2024-03-08T04:30:21;2.80;94.80
21612;DHT22;47005;52.292;13.452;2024-03-08T04:32:47;2.80;94.70
21612;DHT22;47005;52.292;13.452;2024-03-08T04:35:13;2.80;94.80
21612;DHT22;47005;52.292;13.452;2024-03-08T04:37:40;2.80;94.80
21612;DHT22;47005;52.292;13.452;2024-03-08T04:40:06;2.80;94.90
21612;DHT22;47005;52.292;13.452;2024-03-08T04:42:32;2.80;94.80
21612;DHT22;47005;52.292;13.452;2024-03-08T04:45:00;2.80;94.80
21612;DHT22;47005;52.292;13.452;2024-03-08T04:47:26;2.80;94.70
21612;DHT22;47005;52.292;13.452;2024-03-08T04:49:52;2.80;94.70
21612;DHT22;47005;52.292;13.452;2024-03-08T04:52:18;2.70;94.70
21612;DHT22;47005;52.292;13.452;2024-03-08T04:54:44;2.80;94.70
21612;DHT22;47005;52.292;13.452;2024-03-08T04:57:12;2.70;94.70
21612;DHT22;47005;52.292;13.452;2024-03-08T04:59:38;2.70;95.00
21612;DHT22;47005;52.292;13.452;2024-03-08T05:02:04;2.70;94.70
21612;DHT22;47005;52.292;13.452;2024-03-08T05:04:29;2.70;94.70
21612;DHT22;47005;52.292;13.452;2024-03-08T05:06:55;2.70;94.70
21612;DHT22;47005;52.292;13.452;2024-03-08T05:09:21;2.70;94.70
21612;DHT22;47005;52.292;13.452;2024-03-08T05:11:47;2.70;94.70
21612;DHT22;47005;52.292;13.452;2024-03-08T05:14:13;2.70;94.70
21612;DHT22;47005;52.292;13.452;2024-03-08T05:16:45;2.70;94.60
21612;DHT22;47005;52.292;13.452;2024-03-08T05:19:18;2.70;94.70
21612;DHT22;47005;52.292;13.452;2024-03-08T05:21:50;2.70;94.70
21612;DHT22;47005;52.292;13.452;2024-03-08T05:24:16;2.70;94.70
21612;DHT22;47005;52.292;13.452;2024-03-08T05:26:42;2.70;94.60
21612;DHT22;47005;52.292;13.452;2024-03-08T05:29:10;2.60;94.50
21612;DHT22;47005;52.292;13.452;2024-03-08T05:31:50;2.60;94.50
21612;DHT22;47005;52.292;13.452;2024-03-08T05:34:18;2.60;94.60
21612;DHT22;47005;52.292;13.452;2024-03-08T05:36:45;2.60;94.50
21612;DHT22;47005;52.292;13.452;2024-03-08T05:39:12;2.60;94.60
21612;DHT22;47005;52.292;13.452;2024-03-08T05:41:39;2.60;94.60
21612;DHT22;47005;52.292;13.452;2024-03-08T05:44:05;2.60;94.60
21612;DHT22;47005;52.292;13.452;2024-03-08T05:46:31;2.60;94.60
21612;DHT22;47005;52.292;13.452;2024-03-08T05:48:57;2.60;94.60
21612;DHT22;47005;52.292;13.452;2024-03-08T05:51:24;2.60;94.50
21612;DHT22;47005;52.292;13.452;2024-03-08T05:53:52;2.60;94.90
21612;DHT22;47005;52.292;13.452;2024-03-08T05:56:19;2.60;94.60
21612;DHT22;47005;52.292;13.452;2024-03-08T05:58:44;2.60;94.70
21612;DHT22;47005;52.292;13.452;2024-03-08T06:01:11;2.60;94.80
21612;DHT22;47005;52.292;13.452;2024-03-08T06:03:38;2.60;94.70
21612;DHT22;47005;52.292;13.452;2024-03-08T06:06:13;2.60;94.60
21612;DHT22;47005;52.292;13.452;2024-03-08T06:08:39;2.60;94.60
21612;DHT22;47005;52.292;13.452;2024-03-08T06:11:05;2.60;94.50
21612;DHT22;47005;52.292;13.452;2024-03-08T06:13:32;2.60;94.70
21612;DHT22;47005;52.292;13.452;2024-03-08T06:15:59;2.60;94.60
21612;DHT22;47005;52.292;13.452;2024-03-08T06:18:26;2.60;94.70
21612;DHT22;47005;52.292;13.452;2024-03-08T06:20:51;2.60;94.90
21612;DHT22;47005;52.292;13.452;2024-03-08T06:23:18;2.60;95.00
21612;DHT22;47005;52.292;13.452;2024-03-08T06:25:46;2.60;94.90
21612;DHT22;47005;52.292;13.452;2024-03-08T06:28:12;2.60;95.00
21612;DHT22;47005;52.292;13.452;2024-03-08T06:30:39;2.60;95.00
21612;DHT22;47005;52.292;13.452;2024-03-08T06:33:05;2.60;94.90
21612;DHT22;47005;52.292;13.452;2024-03-08T06:35:31;2.60;94.90
21612;DHT22;47005;52.292;13.452;2024-03-08T06:37:58;2.70;95.00
21612;DHT22;47005;52.292;13.452;2024-03-08T06:40:24;2.70;94.90
21612;DHT22;47005;52.292;13.452;2024-03-08T06:42:49;2.60;94.90
21612;DHT22;47005;52.292;13.452;2024-03-08T06:45:17;2.70;94.90
21612;DHT22;47005;52.292;13.452;2024-03-08T06:47:46;2.70;94.90
21612;DHT22;47005;52.292;13.452;2024-03-08T06:50:12;2.70;94.90
21612;DHT22;47005;52.292;13.452;2024-03-08T06:52:38;2.80;95.10
21612;DHT22;47005;52.292;13.452;2024-03-08T06:55:04;2.80;95.00
21612;DHT22;47005;52.292;13.452;2024-03-08T06:57:31;2.80;95.00
21612;DHT22;47005;52.292;13.452;2024-03-08T06:59:56;2.80;94.90
21612;DHT22;47005;52.292;13.452;2024-03-08T07:02:23;2.80;95.00
21612;DHT22;47005;52.292;13.452;2024-03-08T07:04:50;2.80;95.10
21612;DHT22;47005;52.292;13.452;2024-03-08T07:07:16;2.90;95.30
21612;DHT22;47005;52.292;13.452;2024-03-08T07:09:45;2.90;95.30
21612;DHT22;47005;52.292;13.452;2024-03-08T07:12:10;2.90;95.20
21612;DHT22;47005;52.292;13.452;2024-03-08T07:14:38;3.00;95.50
21612;DHT22;47005;52.292;13.452;2024-03-08T07:17:07;3.00;95.20
21612;DHT22;47005;52.292;13.452;2024-03-08T07:19:34;3.00;95.20
21612;DHT22;47005;52.292;13.452;2024-03-08T07:22:00;3.10;95.20
21612;DHT22;47005;52.292;13.452;2024-03-08T07:24:26;3.10;95.20
21612;DHT22;47005;52.292;13.452;2024-03-08T07:27:04;3.10;95.10
21612;DHT22;47005;52.292;13.452;2024-03-08T07:29:31;3.20;95.30
21612;DHT22;47005;52.292;13.452;2024-03-08T07:31:56;3.20;95.80
21612;DHT22;47005;52.292;13.452;2024-03-08T07:34:28;3.20;95.50
21612;DHT22;47005;52.292;13.452;2024-03-08T07:36:57;3.30;95.70
21612;DHT22;47005;52.292;13.452;2024-03-08T07:39:23;3.30;96.00
21612;DHT22;47005;52.292;13.452;2024-03-08T07:41:49;3.30;95.70
21612;DHT22;47005;52.292;13.452;2024-03-08T07:44:18;3.40;95.70
21612;DHT22;47005;52.292;13.452;2024-03-08T07:46:44;3.40;95.60
21612;DHT22;47005;52.292;13.452;2024-03-08T07:49:10;3.40;95.60
21612;DHT22;47005;52.292;13.452;2024-03-08T07:51:37;3.50;95.50
21612;DHT22;47005;52.292;13.452;2024-03-08T07:54:04;3.50;95.50
21612;DHT22;47005;52.292;13.452;2024-03-08T07:56:30;3.60;95.60
21612;DHT22;47005;52.292;13.452;2024-03-08T07:58:56;3.60;95.60
21612;DHT22;47005;52.292;13.452;2024-03-08T08:01:21;3.60;95.90
21612;DHT22;47005;52.292;13.452;2024-03-08T08:03:47;3.70;95.80
21612;DHT22;47005;52.292;13.452;2024-03-08T08:06:15;3.70;95.80
21612;DHT22;47005;52.292;13.452;2024-03-08T08:08:44;3.80;95.70
21612;DHT22;47005;52.292;13.452;2024-03-08T08:11:10;3.80;95.70
21612;DHT22;47005;52.292;13.452;2024-03-08T08:13:37;3.80;95.60
21612;DHT22;47005;52.292;13.452;2024-03-08T08:16:05;3.80;95.60
21612;DHT22;47005;52.292;13.452;2024-03-08T08:18:31;3.90;95.60
21612;DHT22;47005;52.292;13.452;2024-03-08T08:20:59;3.90;95.60
21612;DHT22;47005;52.292;13.452;2024-03-08T08:23:27;4.00;95.70
21612;DHT22;47005;52.292;13.452;2024-03-08T08:25:53;4.00;95.70
21612;DHT22;47005;52.292;13.452;2024-03-08T08:28:18;4.10;95.70
21612;DHT22;47005;52.292;13.452;2024-03-08T08:30:44;4.10;95.60
21612;DHT22;47005;52.292;13.452;2024-03-08T08:33:10;4.10;95.80
21612;DHT22;47005;52.292;13.452;2024-03-08T08:35:37;4.20;95.90
21612;DHT22;47005;52.292;13.452;2024-03-08T08:38:05;4.20;95.70
21612;DHT22;47005;52.292;13.452;2024-03-08T08:40:34;4.20;95.80
21612;DHT22;47005;52.292;13.452;2024-03-08T08:43:01;4.30;95.90
21612;DHT22;47005;52.292;13.452;2024-03-08T08:45:30;4.30;95.80
21612;DHT22;47005;52.292;13.452;2024-03-08T08:47:56;4.40;95.80
21612;DHT22;47005;52.292;13.452;2024-03-08T08:50:22;4.40;95.80
21612;DHT22;47005;52.292;13.452;2024-03-08T08:52:52;4.40;95.70
21612;DHT22;47005;52.292;13.452;2024-03-08T08:55:18;4.50;95.70
21612;DHT22;47005;52.292;13.452;2024-03-08T08:57:46;4.60;95.70
21612;DHT22;47005;52.292;13.452;2024-03-08T09:00:13;4.60;95.60
21612;DHT22;47005;52.292;13.452;2024-03-08T09:02:41;4.60;95.50
21612;DHT22;47005;52.292;13.452;2024-03-08T09:05:07;4.70;95.60
21612;DHT22;47005;52.292;13.452;2024-03-08T09:07:45;4.70;95.40
21612;DHT22;47005;52.292;13.452;2024-03-08T09:10:11;4.80;95.60
21612;DHT22;47005;52.292;13.452;2024-03-08T09:12:38;4.80;95.60
21612;DHT22;47005;52.292;13.452;2024-03-08T09:15:05;4.90;95.50
21612;DHT22;47005;52.292;13.452;2024-03-08T09:17:39;4.90;95.40
21612;DHT22;47005;52.292;13.452;2024-03-08T09:20:06;4.90;95.20
21612;DHT22;47005;52.292;13.452;2024-03-08T09:22:32;5.00;95.20
21612;DHT22;47005;52.292;13.452;2024-03-08T09:24:58;5.00;95.60
21612;DHT22;47005;52.292;13.452;2024-03-08T09:27:23;5.10;95.10
21612;DHT22;47005;52.292;13.452;2024-03-08T09:29:49;5.10;95.00
21612;DHT22;47005;52.292;13.452;2024-03-08T09:32:15;5.20;94.80
21612;DHT22;47005;52.292;13.452;2024-03-08T09:34:40;5.20;94.80
21612;DHT22;47005;52.292;13.452;2024-03-08T09:37:06;5.20;94.90
21612;DHT22;47005;52.292;13.452;2024-03-08T09:39:34;5.30;94.90
21612;DHT22;47005;52.292;13.452;2024-03-08T09:42:00;5.30;94.80
21612;DHT22;47005;52.292;13.452;2024-03-08T09:44:26;5.30;94.70
21612;DHT22;47005;52.292;13.452;2024-03-08T09:46:55;5.30;94.40
21612;DHT22;47005;52.292;13.452;2024-03-08T09:49:20;5.40;94.60
21612;DHT22;47005;52.292;13.452;2024-03-08T09:51:46;5.40;94.10
21612;DHT22;47005;52.292;13.452;2024-03-08T09:54:12;5.50;94.20
21612;DHT22;47005;52.292;13.452;2024-03-08T09:56:39;5.50;94.00
21612;DHT22;47005;52.292;13.452;2024-03-08T09:59:07;5.50;93.60
21612;DHT22;47005;52.292;13.452;2024-03-08T10:01:35;5.60;94.00
21612;DHT22;47005;52.292;13.452;2024-03-08T10:04:02;5.60;93.90
21612;DHT22;47005;52.292;13.452;2024-03-08T10:06:28;5.70;94.00
21612;DHT22;47005;52.292;13.452;2024-03-08T10:08:53;5.70;93.90
21612;DHT22;47005;52.292;13.452;2024-03-08T10:11:19;5.70;93.80
21612;DHT22;47005;52.292;13.452;2024-03-08T10:13:47;5.80;93.70
21612;DHT22;47005;52.292;13.452;2024-03-08T10:16:13;5.80;93.10
21612;DHT22;47005;52.292;13.452;2024-03-08T10:18:38;5.80;93.20
21612;DHT22;47005;52.292;13.452;2024-03-08T10:21:08;5.90;93.30
21612;DHT22;47005;52.292;13.452;2024-03-08T10:23:36;5.90;93.20
21612;DHT22;47005;52.292;13.452;2024-03-08T10:26:15;6.00;93.00
21612;DHT22;47005;52.292;13.452;2024-03-08T10:28:45;6.00;93.10
21612;DHT22;47005;52.292;13.452;2024-03-08T10:31:16;6.00;92.40
21612;DHT22;47005;52.292;13.452;2024-03-08T10:33:42;6.00;92.20
21612;DHT22;47005;52.292;13.452;2024-03-08T10:36:10;6.10;92.10
21612;DHT22;47005;52.292;13.452;2024-03-08T10:38:41;6.10;92.30
21612;DHT22;47005;52.292;13.452;2024-03-08T10:41:10;6.20;92.30
21612;DHT22;47005;52.292;13.452;2024-03-08T10:44:02;6.20;91.80
21612;DHT22;47005;52.292;13.452;2024-03-08T10:47:03;6.20;92.10
21612;DHT22;47005;52.292;13.452;2024-03-08T10:49:32;6.30;91.70
21612;DHT22;47005;52.292;13.452;2024-03-08T10:52:05;6.30;91.90
21612;DHT22;47005;52.292;13.452;2024-03-08T10:54:34;6.30;92.00
21612;DHT22;47005;52.292;13.452;2024-03-08T10:57:05;6.30;91.60
21612;DHT22;47005;52.292;13.452;2024-03-08T10:59:32;6.30;91.70
21612;DHT22;47005;52.292;13.452;2024-03-08T11:01:59;6.40;91.80
21612;DHT22;47005;52.292;13.452;2024-03-08T11:04:25;6.40;91.60
21612;DHT22;47005;52.292;13.452;2024-03-08T11:06:51;6.50;91.60
21612;DHT22;47005;52.292;13.452;2024-03-08T11:12:18;6.50;91.30
21612;DHT22;47005;52.292;13.452;2024-03-08T11:14:51;6.50;90.90
21612;DHT22;47005;52.292;13.452;2024-03-08T11:19:58;6.60;91.00
21612;DHT22;47005;52.292;13.452;2024-03-08T11:22:28;6.70;90.50
21612;DHT22;47005;52.292;13.452;2024-03-08T11:25:02;6.60;91.00
21612;DHT22;47005;52.292;13.452;2024-03-08T11:27:29;6.70;90.90
21612;DHT22;47005;52.292;13.452;2024-03-08T11:30:01;6.70;90.90
21612;DHT22;47005;52.292;13.452;2024-03-08T11:32:36;6.70;90.80
21612;DHT22;47005;52.292;13.452;2024-03-08T11:35:06;6.80;90.70
21612;DHT22;47005;52.292;13.452;2024-03-08T11:37:33;6.80;90.90
21612;DHT22;47005;52.292;13.452;2024-03-08T11:40:00;6.80;90.30
21612;DHT22;47005;52.292;13.452;2024-03-08T11:42:28;6.80;90.80
21612;DHT22;47005;52.292;13.452;2024-03-08T11:44:53;6.90;90.70
21612;DHT22;47005;52.292;13.452;2024-03-08T11:47:20;6.90;90.40
21612;DHT22;47005;52.292;13.452;2024-03-08T11:49:46;7.00;90.60
21612;DHT22;47005;52.292;13.452;2024-03-08T11:52:15;7.00;90.10
21612;DHT22;47005;52.292;13.452;2024-03-08T11:54:41;7.10;90.40
21612;DHT22;47005;52.292;13.452;2024-03-08T11:57:08;7.10;90.40
21612;DHT22;47005;52.292;13.452;2024-03-08T11:59:35;7.10;88.90
21612;DHT22;47005;52.292;13.452;2024-03-08T12:02:06;7.20;88.80
21612;DHT22;47005;52.292;13.452;2024-03-08T12:04:35;7.20;89.30
21612;DHT22;47005;52.292;13.452;2024-03-08T12:07:02;7.20;89.60
21612;DHT22;47005;52.292;13.452;2024-03-08T12:09:34;7.20;88.50
21612;DHT22;47005;52.292;13.452;2024-03-08T12:12:02;7.30;89.70
21612;DHT22;47005;52.292;13.452;2024-03-08T12:14:28;7.30;88.50
21612;DHT22;47005;52.292;13.452;2024-03-08T12:16:54;7.40;87.90
21612;DHT22;47005;52.292;13.452;2024-03-08T12:19:20;7.40;88.20
21612;DHT22;47005;52.292;13.452;2024-03-08T12:21:46;7.50;87.90
21612;DHT22;47005;52.292;13.452;2024-03-08T12:24:16;7.50;88.10
21612;DHT22;47005;52.292;13.452;2024-03-08T12:26:46;7.50;86.80
21612;DHT22;47005;52.292;13.452;2024-03-08T12:31:50;7.60;87.60
21612;DHT22;47005;52.292;13.452;2024-03-08T12:34:17;7.70;87.20
21612;DHT22;47005;52.292;13.452;2024-03-08T12:36:50;7.80;88.40
21612;DHT22;47005;52.292;13.452;2024-03-08T12:39:18;7.90;88.10
21612;DHT22;47005;52.292;13.452;2024-03-08T12:41:48;8.10;88.10
21612;DHT22;47005;52.292;13.452;2024-03-08T12:44:14;8.30;87.80
21612;DHT22;47005;52.292;13.452;2024-03-08T12:46:40;8.40;87.50
21612;DHT22;47005;52.292;13.452;2024-03-08T12:49:09;8.50;85.80
21612;DHT22;47005;52.292;13.452;2024-03-08T12:51:35;8.70;84.70
21612;DHT22;47005;52.292;13.452;2024-03-08T12:54:02;8.70;83.70
21612;DHT22;47005;52.292;13.452;2024-03-08T12:56:30;8.80;84.40
21612;DHT22;47005;52.292;13.452;2024-03-08T12:58:56;8.80;84.70
21612;DHT22;47005;52.292;13.452;2024-03-08T13:01:22;8.80;85.30
21612;DHT22;47005;52.292;13.452;2024-03-08T13:03:48;8.80;84.30
21612;DHT22;47005;52.292;13.452;2024-03-08T13:06:15;8.80;82.80
21612;DHT22;47005;52.292;13.452;2024-03-08T13:08:41;8.80;82.70
21612;DHT22;47005;52.292;13.452;2024-03-08T13:11:09;8.80;83.30
21612;DHT22;47005;52.292;13.452;2024-03-08T13:13:39;8.70;81.90
21612;DHT22;47005;52.292;13.452;2024-03-08T13:16:06;8.70;82.60
21612;DHT22;47005;52.292;13.452;2024-03-08T13:18:34;8.70;83.00
21612;DHT22;47005;52.292;13.452;2024-03-08T13:21:00;8.70;82.80
21612;DHT22;47005;52.292;13.452;2024-03-08T13:23:30;8.70;82.90
21612;DHT22;47005;52.292;13.452;2024-03-08T13:25:56;8.70;82.10
21612;DHT22;47005;52.292;13.452;2024-03-08T13:28:22;8.70;82.60
21612;DHT22;47005;52.292;13.452;2024-03-08T13:30:53;8.70;81.90
21612;DHT22;47005;52.292;13.452;2024-03-08T13:33:19;8.80;82.20
21612;DHT22;47005;52.292;13.452;2024-03-08T13:35:46;8.80;82.90
21612;DHT22;47005;52.292;13.452;2024-03-08T13:38:12;8.80;82.40
21612;DHT22;47005;52.292;13.452;2024-03-08T13:40:39;8.80;82.10
21612;DHT22;47005;52.292;13.452;2024-03-08T13:43:06;8.90;83.20
21612;DHT22;47005;52.292;13.452;2024-03-08T13:45:36;8.90;82.50
21612;DHT22;47005;52.292;13.452;2024-03-08T13:48:04;8.90;82.20
21612;DHT22;47005;52.292;13.452;2024-03-08T13:50:32;8.90;81.50
21612;DHT22;47005;52.292;13.452;2024-03-08T13:52:58;8.90;81.00
21612;DHT22;47005;52.292;13.452;2024-03-08T13:55:24;9.00;81.50
21612;DHT22;47005;52.292;13.452;2024-03-08T13:57:52;9.00;82.10
21612;DHT22;47005;52.292;13.452;2024-03-08T14:00:18;9.00;82.00
21612;DHT22;47005;52.292;13.452;2024-03-08T14:02:48;9.10;82.50
21612;DHT22;47005;52.292;13.452;2024-03-08T14:05:14;9.10;80.70
21612;DHT22;47005;52.292;13.452;2024-03-08T14:07:41;9.20;81.00
21612;DHT22;47005;52.292;13.452;2024-03-08T14:10:07;9.20;81.40
21612;DHT22;47005;52.292;13.452;2024-03-08T14:12:35;9.30;82.30
21612;DHT22;47005;52.292;13.452;2024-03-08T14:15:01;9.40;81.80
21612;DHT22;47005;52.292;13.452;2024-03-08T14:17:27;9.40;81.70
21612;DHT22;47005;52.292;13.452;2024-03-08T14:19:56;9.50;82.50
21612;DHT22;47005;52.292;13.452;2024-03-08T14:22:22;9.60;81.50
21612;DHT22;47005;52.292;13.452;2024-03-08T14:24:48;9.70;81.30
21612;DHT22;47005;52.292;13.452;2024-03-08T14:27:15;9.90;81.20
21612;DHT22;47005;52.292;13.452;2024-03-08T14:29:42;10.00;81.50
21612;DHT22;47005;52.292;13.452;2024-03-08T14:32:09;10.20;82.00
21612;DHT22;47005;52.292;13.452;2024-03-08T14:34:35;10.40;82.20
21612;DHT22;47005;52.292;13.452;2024-03-08T14:37:01;10.60;80.70
21612;DHT22;47005;52.292;13.452;2024-03-08T14:39:31;10.80;80.30
21612;DHT22;47005;52.292;13.452;2024-03-08T14:41:59;11.00;78.70
21612;DHT22;47005;52.292;13.452;2024-03-08T14:44:25;11.20;79.40
21612;DHT22;47005;52.292;13.452;2024-03-08T14:46:56;11.20;78.80
21612;DHT22;47005;52.292;13.452;2024-03-08T14:49:23;11.30;79.60
21612;DHT22;47005;52.292;13.452;2024-03-08T14:51:48;11.30;79.10
21612;DHT22;47005;52.292;13.452;2024-03-08T14:54:14;11.30;78.20
21612;DHT22;47005;52.292;13.452;2024-03-08T14:56:40;11.30;79.30
21612;DHT22;47005;52.292;13.452;2024-03-08T14:59:09;11.40;80.00
21612;DHT22;47005;52.292;13.452;2024-03-08T15:01:35;11.50;80.00
21612;DHT22;47005;52.292;13.452;2024-03-08T15:04:02;11.70;80.70
21612;DHT22;47005;52.292;13.452;2024-03-08T15:06:37;11.90;79.20
21612;DHT22;47005;52.292;13.452;2024-03-08T15:09:04;12.00;79.00
21612;DHT22;47005;52.292;13.452;2024-03-08T15:11:40;12.00;77.90
21612;DHT22;47005;52.292;13.452;2024-03-08T15:14:07;12.10;77.60
21612;DHT22;47005;52.292;13.452;2024-03-08T15:16:39;12.10;77.70
21612;DHT22;47005;52.292;13.452;2024-03-08T15:19:08;12.20;76.90
21612;DHT22;47005;52.292;13.452;2024-03-08T15:21:34;12.10;77.90
21612;DHT22;47005;52.292;13.452;2024-03-08T15:24:01;12.20;79.00
21612;DHT22;47005;52.292;13.452;2024-03-08T15:26:28;12.20;77.20
21612;DHT22;47005;52.292;13.452;2024-03-08T15:28:55;12.20;77.30
21612;DHT22;47005;52.292;13.452;2024-03-08T15:31:22;12.30;77.90
21612;DHT22;47005;52.292;13.452;2024-03-08T15:33:50;12.40;77.60
21612;DHT22;47005;52.292;13.452;2024-03-08T15:36:26;12.40;77.20
21612;DHT22;47005;52.292;13.452;2024-03-08T15:38:56;12.50;76.40
21612;DHT22;47005;52.292;13.452;2024-03-08T15:41:22;12.50;76.30